Time;durP1;ratioP1;P1;durP2;ratioP2;P2;SDS_P1;SDS_P2;PMS_P1;PMS_P2;Temp;Humidity;BMP_temperature;BMP_pressure;BME280_temperature;BME280_humidity;BME280_pressure;Samples;Min_cycle;Max_cycle;Signal;HPM_P1;HPM_P2
2023/10/23 00:00:05;;;;;;;1.50;1.40;;;11.00;99.90;;;;;;5012963;28;20218;-72
2023/10/23 00:02:31;;;;;;;1.63;1.20;;;11.00;99.90;;;;;;5013062;28;20674;-72
2023/10/23 00:04:57;;;;;;;1.40;1.30;;;11.00;99.90;;;;;;5013222;28;20403;-72
2023/10/23 00:07:23;;;;;;;1.77;1.27;;;10.90;99.90;;;;;;5007785;28;20200;-72
2023/10/23 00:09:48;;;;;;;1.77;1.67;;;10.90;99.90;;;;;;5011776;28;20474;-72
2023/10/23 00:12:14;;;;;;;1.53;1.33;;;10.90;99.90;;;;;;5012794;28;20168;-71
2023/10/23 00:14:39;;;;;;;1.37;1.27;;;10.90;99.90;;;;;;5012897;28;20168;-72
2023/10/23 00:17:05;;;;;;;1.80;1.30;;;10.80;99.90;;;;;;5013056;28;20746;-72
2023/10/23 00:19:31;;;;;;;1.50;1.40;;;10.80;99.90;;;;;;5012917;28;20168;-72
2023/10/23 00:21:56;;;;;;;1.73;1.20;;;10.70;99.90;;;;;;5011353;28;20172;-71
2023/10/23 00:24:22;;;;;;;2.17;1.40;;;10.70;99.90;;;;;;5011487;28;20250;-71
2023/10/23 00:26:48;;;;;;;1.97;1.47;;;10.60;99.90;;;;;;5012465;28;20202;-71
2023/10/23 00:29:14;;;;;;;1.70;1.40;;;10.50;99.90;;;;;;5012494;28;20403;-71
2023/10/23 00:31:39;;;;;;;2.90;1.60;;;10.50;99.90;;;;;;5012456;28;20404;-71
2023/10/23 00:34:05;;;;;;;2.83;1.20;;;10.40;99.90;;;;;;5012717;28;20172;-71
2023/10/23 00:36:30;;;;;;;1.17;1.07;;;10.40;99.90;;;;;;5012516;28;20270;-72
2023/10/23 00:38:56;;;;;;;5.67;1.40;;;10.40;99.90;;;;;;5027611;28;20607;-72
2023/10/23 00:41:21;;;;;;;7.40;1.90;;;10.30;99.90;;;;;;5012297;28;20176;-72
2023/10/23 00:43:47;;;;;;;2.80;1.33;;;10.30;99.90;;;;;;5027644;28;20251;-71
2023/10/23 00:46:14;;;;;;;3.53;1.50;;;10.20;99.90;;;;;;5012438;28;20206;-71
2023/10/23 00:48:40;;;;;;;1.53;1.40;;;10.30;99.90;;;;;;5011096;28;20206;-71
2023/10/23 00:51:06;;;;;;;1.10;1.00;;;10.30;99.90;;;;;;5012138;28;20450;-71
2023/10/23 00:53:36;;;;;;;2.90;1.90;;;10.30;99.90;;;;;;5012383;28;20766;-72
2023/10/23 00:56:06;;;;;;;1.63;1.43;;;10.30;99.90;;;;;;5011752;28;20917;-72
2023/10/23 00:58:37;;;;;;;1.77;1.60;;;10.30;99.90;;;;;;5010657;28;20502;-72
2023/10/23 01:01:04;;;;;;;1.73;1.63;;;10.30;99.90;;;;;;5012117;28;20411;-72
2023/10/23 01:03:29;;;;;;;1.63;1.53;;;10.30;99.90;;;;;;5012179;28;20812;-72
2023/10/23 01:05:55;;;;;;;2.57;1.20;;;10.20;99.90;;;;;;5026817;28;20501;-71
2023/10/23 01:08:20;;;;;;;1.40;1.10;;;10.20;99.90;;;;;;5006515;28;20202;-71
2023/10/23 01:10:46;;;;;;;1.90;1.50;;;10.20;99.90;;;;;;5002334;28;20541;-72
2023/10/23 01:13:12;;;;;;;1.40;1.30;;;10.20;99.90;;;;;;5012106;28;20172;-72
2023/10/23 01:15:38;;;;;;;2.30;1.70;;;10.20;99.90;;;;;;5011865;28;20168;-72
2023/10/23 01:18:04;;;;;;;3.10;1.87;;;10.10;99.90;;;;;;5011679;28;20902;-72
2023/10/23 01:20:31;;;;;;;2.90;1.50;;;10.10;99.90;;;;;;5011896;28;20407;-71
2023/10/23 01:23:01;;;;;;;2.00;1.60;;;10.10;99.90;;;;;;5010241;28;20176;-72
2023/10/23 01:25:28;;;;;;;2.73;1.80;;;10.00;99.90;;;;;;5010754;28;20864;-71
2023/10/23 01:27:54;;;;;;;3.60;1.67;;;10.00;99.90;;;;;;5011747;28;20650;-71
2023/10/23 01:30:20;;;;;;;1.57;1.47;;;10.00;99.90;;;;;;5011832;28;21168;-72
2023/10/23 01:32:45;;;;;;;2.60;1.50;;;10.00;99.90;;;;;;5011870;28;20164;-71
2023/10/23 01:35:11;;;;;;;3.77;1.57;;;10.00;99.90;;;;;;5011951;28;20399;-71
2023/10/23 01:37:37;;;;;;;1.83;1.30;;;9.90;99.90;;;;;;5011678;28;20196;-71
2023/10/23 01:40:03;;;;;;;2.37;1.60;;;9.90;99.90;;;;;;5011694;28;20175;-72
2023/10/23 01:42:30;;;;;;;1.73;1.60;;;9.90;99.90;;;;;;5011763;28;20777;-72
2023/10/23 01:45:00;;;;;;;3.87;1.47;;;9.80;99.90;;;;;;5011890;28;20404;-72
2023/10/23 01:47:26;;;;;;;1.63;1.53;;;9.80;99.90;;;;;;5011739;28;20981;-71
2023/10/23 01:49:52;;;;;;;1.30;1.20;;;9.80;99.90;;;;;;5011519;28;20447;-72
2023/10/23 01:52:18;;;;;;;3.50;1.50;;;9.80;99.90;;;;;;5026961;28;20414;-71
2023/10/23 01:54:44;;;;;;;1.43;1.33;;;9.80;99.90;;;;;;5011837;28;20218;-71
2023/10/23 01:57:10;;;;;;;1.60;1.43;;;9.70;99.90;;;;;;5026181;28;20199;-71
2023/10/23 01:59:36;;;;;;;3.73;1.50;;;9.80;99.90;;;;;;5011542;28;20172;-71
2023/10/23 02:02:02;;;;;;;2.87;1.73;;;9.80;99.90;;;;;;5005130;28;20415;-71
2023/10/23 02:04:28;;;;;;;4.40;1.60;;;9.80;99.90;;;;;;5011587;28;20411;-72
2023/10/23 02:06:54;;;;;;;7.73;1.77;;;9.70;99.90;;;;;;5007825;28;20447;-72
2023/10/23 02:09:19;;;;;;;5.40;2.07;;;9.80;99.90;;;;;;5013477;28;20356;-71
2023/10/23 02:11:45;;;;;;;1.63;1.53;;;9.70;99.90;;;;;;5005406;28;20160;-72
2023/10/23 02:14:11;;;;;;;2.00;1.20;;;9.70;99.90;;;;;;5013905;28;20172;-72
2023/10/23 02:16:37;;;;;;;3.83;1.70;;;9.70;99.90;;;;;;5014665;28;20181;-72
2023/10/23 02:19:03;;;;;;;3.83;1.90;;;9.70;99.90;;;;;;5014841;28;20466;-72
2023/10/23 02:21:28;;;;;;;2.07;1.87;;;9.70;99.90;;;;;;5014807;28;20207;-72
2023/10/23 02:23:54;;;;;;;7.90;2.10;;;9.70;99.90;;;;;;5014957;28;20176;-72
2023/10/23 02:26:19;;;;;;;2.27;1.90;;;9.70;99.90;;;;;;5014971;28;20175;-72
2023/10/23 02:28:45;;;;;;;2.57;1.73;;;9.70;99.90;;;;;;5013626;28;20182;-71
2023/10/23 02:31:10;;;;;;;3.17;1.80;;;9.60;99.90;;;;;;5013479;28;20622;-71
2023/10/23 02:33:36;;;;;;;3.67;2.00;;;9.60;99.90;;;;;;5030083;28;20710;-72
2023/10/23 02:36:02;;;;;;;2.13;1.70;;;9.60;99.90;;;;;;5029996;28;20271;-72
2023/10/23 02:38:27;;;;;;;2.97;1.60;;;9.60;99.90;;;;;;5014607;28;20180;-71
2023/10/23 02:40:54;;;;;;;7.80;3.73;;;9.60;99.90;;;;;;5029648;28;20500;-72
2023/10/23 02:43:20;;;;;;;3.63;2.10;;;9.60;99.90;;;;;;5014662;28;20168;-71
2023/10/23 02:45:46;;;;;;;2.00;1.80;;;9.60;99.90;;;;;;5014647;28;20426;-72
2023/10/23 02:48:12;;;;;;;2.27;1.97;;;9.60;99.90;;;;;;5014381;28;20185;-72
2023/10/23 02:50:37;;;;;;;3.97;1.97;;;9.60;99.90;;;;;;5012930;28;20517;-71
2023/10/23 02:53:05;;;;;;;2.73;2.40;;;9.50;99.90;;;;;;5014391;28;20412;-73
2023/10/23 02:55:31;;;;;;;2.30;1.60;;;9.40;99.90;;;;;;5014440;28;20204;-71
2023/10/23 02:57:57;;;;;;;4.83;3.03;;;9.40;99.90;;;;;;5012945;28;20424;-72
2023/10/23 03:00:23;;;;;;;2.00;1.90;;;9.40;99.90;;;;;;5014196;28;20403;-71
2023/10/23 03:02:49;;;;;;;4.70;2.27;;;9.30;99.90;;;;;;5014263;28;20473;-71
2023/10/23 03:05:16;;;;;;;4.83;2.03;;;9.30;99.90;;;;;;5012938;28;20407;-72
2023/10/23 03:07:42;;;;;;;20.13;13.73;;;9.40;99.90;;;;;;5006209;28;20444;-73
2023/10/23 03:10:08;;;;;;;9.13;4.00;;;9.30;99.90;;;;;;5013697;28;20455;-72
2023/10/23 03:12:35;;;;;;;7.53;3.00;;;9.30;99.90;;;;;;5013925;28;20176;-72
2023/10/23 03:15:03;;;;;;;5.10;3.60;;;9.40;99.90;;;;;;5029161;28;20408;-71
2023/10/23 03:17:29;;;;;;;4.57;2.00;;;9.40;99.90;;;;;;5013692;28;20928;-71
2023/10/23 03:19:55;;;;;;;3.10;2.00;;;9.40;99.90;;;;;;5013267;28;20435;-71
2023/10/23 03:22:21;;;;;;;4.53;2.40;;;9.40;99.90;;;;;;5013994;28;20837;-71
2023/10/23 03:24:46;;;;;;;2.47;2.00;;;9.40;99.90;;;;;;5013764;28;20632;-72
2023/10/23 03:27:12;;;;;;;3.10;2.13;;;9.40;99.90;;;;;;5013721;28;20200;-72
2023/10/23 03:29:37;;;;;;;3.33;2.13;;;9.40;99.90;;;;;;5013724;28;20230;-71
2023/10/23 03:32:03;;;;;;;4.13;2.17;;;9.30;99.90;;;;;;5013530;28;20199;-71
2023/10/23 03:34:29;;;;;;;5.07;2.07;;;9.20;99.90;;;;;;5013664;28;20298;-72
2023/10/23 03:36:54;;;;;;;2.43;2.00;;;9.10;99.90;;;;;;5012245;28;20537;-72
2023/10/23 03:39:20;;;;;;;6.50;2.43;;;9.10;99.90;;;;;;5013710;28;20275;-72
2023/10/23 03:41:45;;;;;;;4.63;2.33;;;9.10;99.90;;;;;;5013329;28;20168;-71
2023/10/23 03:44:11;;;;;;;2.50;2.00;;;9.10;99.90;;;;;;5013485;28;20168;-71
2023/10/23 03:46:36;;;;;;;3.30;2.33;;;9.10;99.90;;;;;;5028317;28;20192;-72
2023/10/23 03:49:02;;;;;;;2.70;2.50;;;9.10;99.90;;;;;;5013355;28;20222;-72
2023/10/23 03:51:28;;;;;;;2.67;2.17;;;9.10;99.90;;;;;;5028370;28;20662;-72
2023/10/23 03:53:53;;;;;;;2.97;2.10;;;9.10;99.90;;;;;;5028448;28;20172;-72
2023/10/23 03:56:19;;;;;;;2.23;1.60;;;9.10;99.90;;;;;;5028380;28;20176;-72
2023/10/23 03:58:44;;;;;;;3.30;2.03;;;9.10;99.90;;;;;;5028430;28;20263;-72
2023/10/23 04:01:11;;;;;;;4.37;3.13;;;9.10;99.90;;;;;;5012278;28;20180;-71
2023/10/23 04:03:36;;;;;;;2.50;2.30;;;9.10;99.90;;;;;;5012304;28;20182;-71
2023/10/23 04:06:03;;;;;;;3.60;2.30;;;9.10;99.90;;;;;;5013124;28;20778;-71
2023/10/23 04:08:29;;;;;;;4.30;2.53;;;9.00;99.90;;;;;;5009430;28;20208;-72
2023/10/23 04:10:54;;;;;;;7.43;1.73;;;9.00;99.90;;;;;;5005055;28;20495;-72
2023/10/23 04:13:20;;;;;;;3.17;2.27;;;9.00;99.90;;;;;;5012801;28;20211;-71
2023/10/23 04:15:53;;;;;;;2.60;2.40;;;8.90;99.90;;;;;;5012776;28;20180;-72
2023/10/23 04:18:19;;;;;;;2.67;2.47;;;8.90;99.90;;;;;;5012622;28;20556;-71
2023/10/23 04:20:44;;;;;;;2.60;2.30;;;8.80;99.90;;;;;;5011407;28;20411;-71
2023/10/23 04:23:10;;;;;;;4.37;2.90;;;8.70;99.90;;;;;;5012850;28;20183;-71
2023/10/23 04:25:35;;;;;;;4.80;2.70;;;8.70;99.90;;;;;;5028017;28;20248;-71
2023/10/23 04:28:01;;;;;;;2.97;2.20;;;8.70;99.90;;;;;;5011337;28;20196;-71
2023/10/23 04:30:26;;;;;;;3.47;2.50;;;8.70;99.90;;;;;;5011657;28;20231;-71
2023/10/23 04:32:52;;;;;;;4.53;2.60;;;8.70;99.90;;;;;;5011602;28;20234;-71
2023/10/23 04:35:17;;;;;;;6.50;2.77;;;8.70;99.90;;;;;;5012508;28;20219;-72
2023/10/23 04:37:43;;;;;;;6.00;2.97;;;8.60;99.90;;;;;;5012492;28;20191;-72
2023/10/23 04:40:09;;;;;;;3.17;2.57;;;8.60;99.90;;;;;;5012332;28;20191;-71
2023/10/23 04:42:35;;;;;;;7.93;2.57;;;8.60;99.90;;;;;;5027730;28;20251;-72
2023/10/23 04:45:00;;;;;;;2.60;2.40;;;8.60;99.90;;;;;;5012497;28;20498;-71
2023/10/23 04:47:26;;;;;;;2.57;2.13;;;8.50;99.90;;;;;;5011037;28;20195;-72
2023/10/23 04:49:51;;;;;;;3.00;2.70;;;8.50;99.90;;;;;;5010909;28;20191;-72
2023/10/23 04:52:18;;;;;;;7.73;2.70;;;8.50;99.90;;;;;;5012247;28;20164;-71
2023/10/23 04:54:43;;;;;;;2.63;2.40;;;8.50;99.90;;;;;;5004144;28;20177;-72
2023/10/23 04:57:09;;;;;;;4.93;2.50;;;8.50;99.90;;;;;;5006110;28;20469;-71
2023/10/23 04:59:35;;;;;;;2.33;1.90;;;8.50;99.90;;;;;;4988770;28;20180;-71
2023/10/23 05:02:01;;;;;;;4.77;2.40;;;8.40;99.90;;;;;;5012166;28;20172;-72
2023/10/23 05:04:32;;;;;;;4.20;2.83;;;8.40;99.90;;;;;;5012190;28;20461;-72
2023/10/23 05:06:59;;;;;;;5.77;4.50;;;8.20;99.90;;;;;;5009095;28;20455;-71
2023/10/23 05:09:24;;;;;;;8.87;5.67;;;8.10;99.90;;;;;;5017917;28;20435;-71
2023/10/23 05:11:50;;;;;;;3.53;2.97;;;8.20;99.90;;;;;;5011760;28;20411;-72
2023/10/23 05:14:15;;;;;;;3.93;3.07;;;8.10;99.90;;;;;;5002594;28;20735;-72
2023/10/23 05:16:41;;;;;;;3.17;2.87;;;8.20;99.90;;;;;;5027163;28;20188;-71
2023/10/23 05:19:08;;;;;;;3.50;2.63;;;8.20;99.90;;;;;;5012145;28;20195;-72
2023/10/23 05:21:34;;;;;;;3.30;2.63;;;8.20;99.90;;;;;;5012005;28;20707;-72
2023/10/23 05:23:59;;;;;;;4.93;3.20;;;8.20;99.90;;;;;;5012045;28;20494;-71
2023/10/23 05:26:25;;;;;;;3.87;2.23;;;8.20;99.90;;;;;;5010682;28;20219;-71
2023/10/23 05:28:53;;;;;;;5.90;3.00;;;8.20;99.90;;;;;;5000019;28;20307;-71
2023/10/23 05:31:19;;;;;;;3.90;3.43;;;8.10;99.90;;;;;;5011702;28;20485;-72
2023/10/23 05:33:44;;;;;;;3.07;2.70;;;8.10;99.90;;;;;;5027092;28;20469;-71
2023/10/23 05:36:10;;;;;;;4.93;2.50;;;8.00;99.90;;;;;;5011723;28;20434;-72
2023/10/23 05:38:37;;;;;;;2.73;2.53;;;8.00;99.90;;;;;;5011878;28;20244;-71
2023/10/23 05:41:02;;;;;;;2.63;2.43;;;8.00;99.90;;;;;;5010774;28;20168;-72
2023/10/23 05:43:29;;;;;;;3.60;2.60;;;7.90;99.90;;;;;;5015757;28;20465;-72
2023/10/23 05:45:55;;;;;;;5.70;3.03;;;7.90;99.90;;;;;;5011192;28;20191;-71
2023/10/23 05:48:20;;;;;;;4.20;2.83;;;8.00;99.90;;;;;;5015440;28;20480;-72
2023/10/23 05:50:55;;;;;;;5.83;3.17;;;7.90;99.90;;;;;;5015248;28;20462;-72
2023/10/23 05:53:21;;;;;;;4.30;3.47;;;7.90;99.90;;;;;;5015560;28;20244;-71
2023/10/23 05:55:46;;;;;;;3.40;2.70;;;7.80;99.90;;;;;;5009022;28;20863;-72
2023/10/23 05:58:12;;;;;;;4.93;3.57;;;7.80;99.90;;;;;;4997986;28;20275;-72
2023/10/23 06:00:37;;;;;;;7.83;3.10;;;7.70;99.90;;;;;;5015243;28;20231;-72
2023/10/23 06:03:03;;;;;;;4.20;2.77;;;7.70;99.90;;;;;;5015315;28;20245;-72
2023/10/23 06:05:28;;;;;;;3.60;3.07;;;7.70;99.90;;;;;;5011999;28;20190;-71
2023/10/23 06:07:54;;;;;;;4.93;2.80;;;7.80;99.90;;;;;;4992154;28;20196;-72
2023/10/23 06:10:19;;;;;;;2.47;2.27;;;7.80;99.90;;;;;;5009659;28;20204;-71
2023/10/23 06:12:44;;;;;;;2.63;2.43;;;7.90;99.90;;;;;;5014936;28;20539;-72
2023/10/23 06:15:10;;;;;;;2.27;2.00;;;7.90;99.90;;;;;;5030032;28;20164;-72
2023/10/23 06:17:36;;;;;;;4.03;2.40;;;7.90;99.90;;;;;;5015007;28;20188;-71
2023/10/23 06:20:02;;;;;;;4.60;3.00;;;7.90;99.90;;;;;;5030158;28;20180;-71
2023/10/23 06:22:28;;;;;;;3.27;2.57;;;7.90;99.90;;;;;;5014959;28;20165;-71
2023/10/23 06:24:53;;;;;;;4.03;2.43;;;7.90;99.90;;;;;;5014993;28;20461;-71
2023/10/23 06:27:19;;;;;;;3.07;2.80;;;8.00;99.90;;;;;;5014735;28;20242;-72
2023/10/23 06:29:44;;;;;;;6.73;3.17;;;7.90;99.90;;;;;;5014840;28;20195;-71
2023/10/23 06:32:11;;;;;;;2.97;2.77;;;7.90;99.90;;;;;;5014670;28;20160;-71
2023/10/23 06:34:37;;;;;;;4.30;3.50;;;7.90;99.90;;;;;;5014791;28;20576;-71
2023/10/23 06:37:03;;;;;;;4.67;4.07;;;8.00;99.90;;;;;;5014870;28;20443;-71
2023/10/23 06:39:29;;;;;;;4.90;3.10;;;8.10;99.90;;;;;;5014641;28;20161;-70
2023/10/23 06:41:54;;;;;;;10.80;4.10;;;8.20;99.90;;;;;;5014497;28;20902;-70
2023/10/23 06:44:19;;;;;;;4.37;3.77;;;8.20;99.90;;;;;;5014639;28;20199;-70
2023/10/23 06:46:45;;;;;;;4.77;3.60;;;8.30;99.90;;;;;;5013389;28;20271;-71
2023/10/23 06:49:10;;;;;;;4.40;3.50;;;8.30;99.90;;;;;;5014595;28;20168;-71
2023/10/23 06:51:36;;;;;;;3.73;3.13;;;8.30;99.90;;;;;;5029478;28;20259;-70
2023/10/23 06:54:03;;;;;;;2.97;2.43;;;8.40;99.90;;;;;;5013600;28;20164;-71
2023/10/23 06:56:29;;;;;;;5.80;3.60;;;8.40;99.90;;;;;;5014386;28;20197;-71
2023/10/23 06:58:55;;;;;;;4.77;2.80;;;8.50;99.90;;;;;;5029500;28;20494;-70
2023/10/23 07:01:20;;;;;;;3.50;3.00;;;8.60;99.90;;;;;;5014164;28;20173;-71
2023/10/23 07:03:46;;;;;;;3.43;3.13;;;8.80;99.90;;;;;;5014298;28;20409;-71
2023/10/23 07:06:12;;;;;;;3.70;3.20;;;8.90;99.90;;;;;;5014134;28;20539;-71
2023/10/23 07:08:39;;;;;;;3.73;3.27;;;9.00;99.90;;;;;;5014055;28;20248;-71
2023/10/23 07:11:12;;;;;;;5.37;3.43;;;9.10;99.90;;;;;;5013918;28;20218;-71
2023/10/23 07:13:37;;;;;;;8.70;4.80;;;9.20;99.90;;;;;;5012762;28;20467;-71
2023/10/23 07:16:03;;;;;;;5.47;3.60;;;9.20;99.90;;;;;;5014064;28;20400;-71
2023/10/23 07:18:29;;;;;;;11.17;4.03;;;9.30;99.90;;;;;;5013803;28;20189;-69
2023/10/23 07:20:56;;;;;;;5.47;4.20;;;9.40;99.90;;;;;;5028967;28;20180;-71
2023/10/23 07:23:22;;;;;;;13.23;4.60;;;9.50;99.90;;;;;;5013926;28;20164;-70
2023/10/23 07:25:48;;;;;;;4.43;3.77;;;9.60;99.90;;;;;;5013778;28;20414;-70
2023/10/23 07:28:13;;;;;;;12.17;5.17;;;9.70;99.90;;;;;;5012558;28;20974;-71
2023/10/23 07:30:39;;;;;;;8.50;4.77;;;9.90;99.90;;;;;;5013625;28;20524;-71
2023/10/23 07:33:04;;;;;;;8.13;5.53;;;9.80;99.90;;;;;;5013845;28;20169;-71
2023/10/23 07:35:30;;;;;;;6.00;3.93;;;9.90;99.90;;;;;;5013506;28;20196;-71
2023/10/23 07:37:56;;;;;;;10.50;5.27;;;10.10;99.90;;;;;;5013520;28;20198;-71
2023/10/23 07:40:21;;;;;;;6.03;4.87;;;10.20;99.90;;;;;;5013542;28;20204;-71
2023/10/23 07:42:47;;;;;;;6.00;4.30;;;10.30;99.90;;;;;;5013696;28;20175;-71
2023/10/23 07:45:12;;;;;;;7.07;4.20;;;10.50;99.90;;;;;;5013517;28;20168;-72
2023/10/23 07:47:38;;;;;;;6.30;4.00;;;10.80;99.90;;;;;;5013321;28;20196;-70
2023/10/23 07:50:04;;;;;;;7.20;4.57;;;11.10;99.90;;;;;;5013104;28;20204;-71
2023/10/23 07:52:30;;;;;;;7.87;4.03;;;11.30;99.90;;;;;;5028709;28;20674;-71
2023/10/23 07:54:55;;;;;;;6.77;4.77;;;11.70;99.90;;;;;;5028570;28;20411;-71
2023/10/23 07:57:21;;;;;;;8.40;5.27;;;11.90;99.90;;;;;;5028332;28;20242;-71
2023/10/23 07:59:46;;;;;;;7.80;4.70;;;12.10;99.90;;;;;;5013219;28;20176;-72
2023/10/23 08:02:12;;;;;;;6.60;5.23;;;12.30;99.90;;;;;;5013281;28;20643;-71
2023/10/23 08:04:37;;;;;;;10.10;5.47;;;12.60;99.90;;;;;;5013123;28;20260;-71
2023/10/23 08:07:03;;;;;;;14.87;6.03;;;12.80;99.90;;;;;;5011641;28;20196;-71
2023/10/23 08:09:29;;;;;;;6.90;5.73;;;13.40;99.90;;;;;;5028122;28;20184;-71
2023/10/23 08:11:54;;;;;;;9.37;7.30;;;13.60;99.90;;;;;;5012773;28;20168;-71
2023/10/23 08:14:20;;;;;;;6.93;6.23;;;14.00;99.90;;;;;;5011869;28;20643;-71
2023/10/23 08:16:45;;;;;;;6.73;6.00;;;14.20;99.90;;;;;;5012938;28;20188;-71
2023/10/23 08:19:12;;;;;;;16.00;7.30;;;14.20;99.90;;;;;;5027956;28;20204;-72
2023/10/23 08:21:38;;;;;;;9.90;6.63;;;14.20;99.90;;;;;;5012577;28;20172;-71
2023/10/23 08:24:04;;;;;;;11.13;7.23;;;14.10;99.90;;;;;;5012875;28;20775;-71
2023/10/23 08:26:30;;;;;;;13.13;8.87;;;14.00;99.90;;;;;;5012751;28;20234;-71
2023/10/23 08:28:55;;;;;;;12.67;9.70;;;13.70;99.90;;;;;;5012675;28;20418;-71
2023/10/23 08:31:21;;;;;;;16.90;10.93;;;13.40;99.90;;;;;;5012484;28;20200;-72
2023/10/23 08:33:47;;;;;;;13.00;9.67;;;13.30;99.90;;;;;;5012689;28;20192;-70
2023/10/23 08:36:12;;;;;;;13.20;10.13;;;13.10;99.90;;;;;;5012631;28;20184;-70
2023/10/23 08:38:38;;;;;;;12.90;10.33;;;13.10;99.90;;;;;;5012475;28;20412;-71
2023/10/23 08:41:04;;;;;;;12.80;9.60;;;12.90;99.90;;;;;;5012359;28;20662;-71
2023/10/23 08:43:30;;;;;;;13.07;10.20;;;12.70;99.90;;;;;;5012649;28;20511;-71
2023/10/23 08:45:59;;;;;;;18.90;11.47;;;12.70;99.90;;;;;;5027602;28;20580;-71
2023/10/23 08:48:24;;;;;;;18.87;12.23;;;12.40;99.90;;;;;;5012271;28;20427;-70
2023/10/23 08:50:51;;;;;;;15.70;10.40;;;12.30;99.90;;;;;;5027169;28;20536;-71
2023/10/23 08:53:22;;;;;;;14.00;10.67;;;12.20;99.90;;;;;;5012378;28;20696;-70
2023/10/23 08:55:48;;;;;;;17.27;11.87;;;12.10;99.90;;;;;;5011285;28;20545;-72
2023/10/23 08:58:17;;;;;;;14.20;10.47;;;12.10;99.90;;;;;;5027395;28;20806;-71
2023/10/23 09:00:42;;;;;;;14.00;10.27;;;12.10;99.90;;;;;;5012031;28;20492;-71
2023/10/23 09:03:10;;;;;;;14.60;10.23;;;12.00;99.90;;;;;;5012064;28;20450;-71
2023/10/23 09:05:35;;;;;;;12.00;9.47;;;12.10;99.90;;;;;;5012155;28;20218;-70
2023/10/23 09:08:02;;;;;;;13.80;11.50;;;12.20;99.90;;;;;;5012044;28;20516;-71
2023/10/23 09:10:27;;;;;;;17.93;11.50;;;12.30;99.90;;;;;;5011893;28;20319;-71
2023/10/23 09:13:00;;;;;;;18.53;11.60;;;12.40;99.90;;;;;;5012112;28;20411;-70
2023/10/23 09:15:25;;;;;;;20.23;10.80;;;12.40;99.90;;;;;;5027460;28;20180;-71
2023/10/23 09:17:51;;;;;;;16.30;11.67;;;12.40;99.90;;;;;;5018002;28;20775;-70
2023/10/23 09:20:19;;;;;;;13.70;11.10;;;12.50;99.90;;;;;;5018468;28;20168;-70
2023/10/23 09:22:49;;;;;;;12.93;9.70;;;12.40;99.90;;;;;;5018771;28;20175;-71
2023/10/23 09:25:15;;;;;;;10.20;8.50;;;12.40;99.90;;;;;;5018619;28;20407;-72
2023/10/23 09:27:41;;;;;;;12.47;10.10;;;12.40;99.90;;;;;;5018306;28;20427;-69
2023/10/23 09:30:08;;;;;;;14.40;10.53;;;12.70;99.90;;;;;;5018215;28;20454;-70
2023/10/23 09:32:35;;;;;;;13.87;10.00;;;12.70;99.90;;;;;;5033950;28;20172;-70
2023/10/23 09:35:02;;;;;;;13.20;9.73;;;12.80;99.90;;;;;;5018466;28;20410;-70
2023/10/23 09:37:27;;;;;;;13.03;7.80;;;12.90;99.90;;;;;;5018225;28;20496;-70
2023/10/23 09:39:53;;;;;;;9.83;8.77;;;12.90;99.90;;;;;;5018210;28;20929;-70
2023/10/23 09:42:18;;;;;;;15.27;9.97;;;13.00;99.90;;;;;;5018504;28;20627;-70
2023/10/23 09:44:45;;;;;;;13.30;6.97;;;13.20;99.90;;;;;;5018425;28;20207;-72
2023/10/23 09:47:13;;;;;;;8.30;6.93;;;13.20;99.90;;;;;;5018111;28;20786;-69
2023/10/23 09:49:40;;;;;;;8.17;7.37;;;13.40;99.90;;;;;;5018425;28;20874;-69
2023/10/23 09:52:09;;;;;;;9.23;6.40;;;13.40;99.90;;;;;;5016901;28;20442;-70
2023/10/23 09:54:38;;;;;;;11.03;6.87;;;13.60;99.90;;;;;;5018314;28;20407;-71
2023/10/23 09:57:07;;;;;;;8.77;6.67;;;13.80;99.90;;;;;;5018156;28;20485;-71
2023/10/23 09:59:42;;;;;;;10.13;7.13;;;14.00;99.90;;;;;;5018233;28;20402;-71
2023/10/23 10:02:09;;;;;;;7.63;5.43;;;14.30;99.90;;;;;;5033211;28;20944;-71
2023/10/23 10:04:53;;;;;;;8.50;7.73;;;14.60;99.90;;;;;;5018233;28;20751;-71
2023/10/23 10:07:29;;;;;;;6.63;5.93;;;14.70;99.90;;;;;;5033325;28;20480;-72
2023/10/23 10:09:56;;;;;;;7.37;5.93;;;14.70;99.90;;;;;;5017861;28;20458;-72
2023/10/23 10:12:23;;;;;;;6.10;5.40;;;14.70;99.90;;;;;;5033362;28;20407;-71
2023/10/23 10:14:49;;;;;;;6.03;5.53;;;14.70;99.90;;;;;;5018102;28;20403;-72
2023/10/23 10:17:19;;;;;;;8.40;5.80;;;14.80;99.90;;;;;;5017928;28;20422;-73
2023/10/23 10:19:46;;;;;;;6.57;5.50;;;14.70;99.90;;;;;;5033463;28;20910;-72
2023/10/23 10:22:23;;;;;;;12.60;5.30;;;14.50;99.90;;;;;;5017871;28;20810;-71
2023/10/23 10:24:49;;;;;;;5.50;5.00;;;14.40;99.90;;;;;;5033291;28;20421;-72
2023/10/23 10:27:16;;;;;;;8.80;5.70;;;14.40;99.90;;;;;;5017209;28;20819;-71
2023/10/23 10:29:42;;;;;;;7.77;5.00;;;14.60;99.90;;;;;;5012725;28;20788;-72
2023/10/23 10:32:10;;;;;;;5.93;4.77;;;15.20;99.90;;;;;;5014671;28;20403;-72
2023/10/23 10:34:37;;;;;;;9.00;4.40;;;15.80;99.90;;;;;;5013807;28;20420;-72
2023/10/23 10:37:05;;;;;;;4.40;4.00;;;16.50;99.90;;;;;;5014448;28;20442;-71
2023/10/23 10:39:55;;;;;;;3.60;3.30;;;17.10;99.90;;;;;;5014795;28;20407;-71
2023/10/23 10:42:23;;;;;;;4.00;3.47;;;17.70;99.90;;;;;;5014806;28;20406;-71
2023/10/23 10:45:00;;;;;;;3.37;3.07;;;18.00;99.90;;;;;;5029876;28;20459;-72
2023/10/23 10:47:39;;;;;;;4.07;3.63;;;17.90;99.90;;;;;;5013087;28;20458;-73
2023/10/23 10:50:05;;;;;;;3.53;2.90;;;17.90;99.90;;;;;;5014330;28;20877;-72
2023/10/23 10:52:35;;;;;;;4.50;3.70;;;18.10;99.90;;;;;;5014481;28;20403;-72
2023/10/23 10:55:11;;;;;;;4.60;3.33;;;18.00;99.90;;;;;;5014429;28;20408;-71
2023/10/23 10:57:42;;;;;;;4.83;3.43;;;17.90;99.90;;;;;;5013092;28;20430;-72
2023/10/23 11:00:09;;;;;;;4.10;3.50;;;18.00;99.90;;;;;;5014130;28;20533;-72
2023/10/23 11:02:36;;;;;;;3.00;2.63;;;18.20;99.90;;;;;;5014328;28;20949;-71
2023/10/23 11:05:08;;;;;;;2.90;2.50;;;18.30;99.90;;;;;;5014215;28;20412;-72
2023/10/23 11:07:33;;;;;;;3.13;2.83;;;18.30;99.90;;;;;;5029291;28;20437;-71
2023/10/23 11:09:58;;;;;;;2.80;2.37;;;18.00;99.90;;;;;;5014327;28;20455;-69
2023/10/23 11:12:24;;;;;;;3.23;2.93;;;18.10;99.90;;;;;;5029188;28;20640;-70
2023/10/23 11:14:50;;;;;;;2.50;2.30;;;18.00;99.90;;;;;;5029235;28;20176;-69
2023/10/23 11:17:15;;;;;;;3.20;2.37;;;17.90;99.90;;;;;;5014072;28;20200;-69
2023/10/23 11:19:44;;;;;;;5.07;2.13;;;18.00;99.90;;;;;;5014008;28;20251;-69
2023/10/23 11:22:12;;;;;;;2.90;2.40;;;18.10;99.90;;;;;;5013728;28;20251;-71
2023/10/23 11:24:38;;;;;;;3.60;2.10;;;18.10;99.90;;;;;;5013877;28;20416;-70
2023/10/23 11:27:07;;;;;;;3.70;2.43;;;18.00;99.90;;;;;;5012414;28;20439;-70
2023/10/23 11:29:42;;;;;;;2.97;2.60;;;17.90;99.90;;;;;;5012465;28;20441;-72
2023/10/23 11:32:08;;;;;;;2.10;1.87;;;18.00;99.90;;;;;;5012290;28;20415;-71
2023/10/23 11:34:37;;;;;;;2.63;2.33;;;18.10;99.90;;;;;;5013740;28;20887;-70
2023/10/23 11:37:07;;;;;;;1.80;1.70;;;18.20;99.90;;;;;;5013550;28;20442;-71
2023/10/23 11:39:35;;;;;;;2.97;2.00;;;18.00;99.90;;;;;;5013215;28;20439;-72
2023/10/23 11:42:02;;;;;;;2.47;2.20;;;18.00;99.90;;;;;;5013302;28;20411;-71
2023/10/23 11:44:29;;;;;;;2.80;1.87;;;18.00;99.90;;;;;;5012250;28;20799;-71
2023/10/23 11:46:58;;;;;;;1.97;1.87;;;17.90;99.90;;;;;;5013687;28;20429;-71
2023/10/23 11:49:24;;;;;;;4.97;1.70;;;18.10;99.90;;;;;;5013561;28;20964;-71
2023/10/23 11:51:56;;;;;;;2.77;1.50;;;18.20;99.90;;;;;;5013077;28;20996;-71
2023/10/23 11:54:24;;;;;;;2.53;1.90;;;18.20;99.90;;;;;;5013426;28;20404;-71
2023/10/23 11:56:50;;;;;;;5.70;1.60;;;18.20;99.90;;;;;;5013182;28;20443;-71
2023/10/23 11:59:20;;;;;;;1.50;1.40;;;18.10;99.90;;;;;;5013260;28;20519;-71
2023/10/23 12:01:46;;;;;;;1.67;1.47;;;18.00;99.90;;;;;;5028259;28;20807;-70
2023/10/23 12:04:13;;;;;;;2.37;1.80;;;18.00;99.90;;;;;;5013159;28;20407;-70
2023/10/23 12:06:39;;;;;;;1.97;1.63;;;17.90;99.90;;;;;;5013011;28;20438;-71
2023/10/23 12:09:06;;;;;;;1.90;1.30;;;17.80;99.90;;;;;;5013138;28;20791;-70
2023/10/23 12:11:32;;;;;;;2.27;2.07;;;17.70;99.90;;;;;;5011689;28;20470;-71
2023/10/23 12:13:59;;;;;;;2.37;1.73;;;17.70;99.90;;;;;;5011706;28;20894;-70
2023/10/23 12:16:26;;;;;;;2.03;1.77;;;17.70;99.90;;;;;;5012962;28;20785;-71
2023/10/23 12:18:51;;;;;;;5.47;3.20;;;17.60;99.90;;;;;;5012823;28;20485;-70
2023/10/23 12:21:18;;;;;;;2.43;2.23;;;17.80;99.90;;;;;;5012613;28;20450;-71
2023/10/23 12:23:44;;;;;;;2.23;1.60;;;17.90;99.90;;;;;;5028112;28;20714;-70
2023/10/23 12:26:11;;;;;;;3.30;1.60;;;18.00;99.90;;;;;;5012713;28;20494;-71
2023/10/23 12:28:37;;;;;;;1.50;1.40;;;18.20;99.90;;;;;;5028031;28;20789;-70
2023/10/23 12:31:04;;;;;;;4.57;1.83;;;18.30;99.90;;;;;;5012535;28;20450;-71
2023/10/23 12:33:30;;;;;;;4.33;2.00;;;18.40;99.90;;;;;;5011401;28;20546;-71
2023/10/23 12:35:55;;;;;;;2.13;1.93;;;18.50;99.90;;;;;;5012452;28;20522;-71
2023/10/23 12:38:21;;;;;;;4.37;1.50;;;18.30;99.90;;;;;;5012551;28;20434;-71
2023/10/23 12:40:48;;;;;;;2.83;1.90;;;18.40;99.90;;;;;;5012478;28;20163;-71
2023/10/23 12:43:14;;;;;;;2.13;1.80;;;18.50;99.90;;;;;;5011304;28;20180;-71
2023/10/23 12:45:42;;;;;;;3.23;1.60;;;18.60;99.90;;;;;;5012466;28;20400;-71